US-0225 weather

Treasure Island Helipad
San Francisco, California, United States

Public forecast

Using degrees Fahrenheit for public forecast. Weather courtesy of forecast.io.

Closest aviation weather report (METAR) to Treasure Island Helipad

Closest report is Metropolitan Oakland International Airport, 9.0 nm (16.7 km) SE. Retrieved 2019/12/08 19:53 UTC (50 minutes ago):

KOAK 081953Z 25004KT 10SM FEW008 SCT022 BKN034 BKN150 15/11 A3004 RMK AO2 SLP171 T01500111

Closest aviation forecast (TAF) to Treasure Island Helipad

Closest forecast is Metropolitan Oakland International Airport, 9.0 nm (16.7 km) SE. Retrieved 2019/12/08 18:42 UTC (2 hours ago):

TAF KOAK 081739Z 0818/0924 26004KT P6SM VCSH BKN030 OVC045 FM082100 27010KT P6SM VCSH SCT030 BKN050 FM090300 29008KT P6SM BKN030 OVC040 FM090800 VRB04KT P6SM BKN030 OVC040 FM091000 VRB03KT 6SM BR BKN030 OVC040 FM091600 12003KT 6SM BR BKN025 OVC030